sensor_id;sensor_type;location;lat;lon;timestamp;pressure;altitude;pressure_sealevel;temperature;humidity
23170;BME280;11753;43.144;24.714;2023-02-02T00:00:11;99630.69;;;6.23;59.05
23170;BME280;11753;43.144;24.714;2023-02-02T00:01:13;99627.59;;;6.18;59.21
23170;BME280;11753;43.144;24.714;2023-02-02T00:02:13;99627.25;;;6.11;59.85
23170;BME280;11753;43.144;24.714;2023-02-02T00:03:14;99623.56;;;6.14;60.01
23170;BME280;11753;43.144;24.714;2023-02-02T00:04:20;99633.09;;;6.15;60.52
23170;BME280;11753;43.144;24.714;2023-02-02T00:05:21;99630.56;;;6.13;60.90
23170;BME280;11753;43.144;24.714;2023-02-02T00:06:23;99646.19;;;5.92;61.97
23170;BME280;11753;43.144;24.714;2023-02-02T00:07:24;99639.31;;;6.02;62.30
23170;BME280;11753;43.144;24.714;2023-02-02T00:08:24;99625.75;;;5.97;62.62
23170;BME280;11753;43.144;24.714;2023-02-02T00:09:27;99633.97;;;5.93;63.25
23170;BME280;11753;43.144;24.714;2023-02-02T00:10:30;99621.13;;;5.90;63.11
23170;BME280;11753;43.144;24.714;2023-02-02T00:11:31;99628.41;;;5.86;63.53
23170;BME280;11753;43.144;24.714;2023-02-02T00:12:32;99634.59;;;5.74;63.93
23170;BME280;11753;43.144;24.714;2023-02-02T00:13:33;99614.66;;;5.73;64.35
23170;BME280;11753;43.144;24.714;2023-02-02T00:14:34;99628.63;;;5.83;64.25
23170;BME280;11753;43.144;24.714;2023-02-02T00:15:35;99627.22;;;5.79;64.78
23170;BME280;11753;43.144;24.714;2023-02-02T00:17:46;99635.16;;;5.89;64.33
23170;BME280;11753;43.144;24.714;2023-02-02T00:18:47;99640.88;;;5.94;64.83
23170;BME280;11753;43.144;24.714;2023-02-02T00:19:48;99634.56;;;5.96;64.59
23170;BME280;11753;43.144;24.714;2023-02-02T00:20:49;99639.69;;;5.87;64.82
23170;BME280;11753;43.144;24.714;2023-02-02T00:21:51;99640.50;;;5.87;65.42
23170;BME280;11753;43.144;24.714;2023-02-02T00:22:52;99643.59;;;5.92;64.95
23170;BME280;11753;43.144;24.714;2023-02-02T00:23:53;99636.81;;;6.01;64.78
23170;BME280;11753;43.144;24.714;2023-02-02T00:24:54;99636.44;;;6.05;64.58
23170;BME280;11753;43.144;24.714;2023-02-02T00:25:55;99641.84;;;6.14;64.84
23170;BME280;11753;43.144;24.714;2023-02-02T00:26:58;99636.63;;;6.14;65.03
23170;BME280;11753;43.144;24.714;2023-02-02T00:27:59;99639.50;;;6.11;65.23
23170;BME280;11753;43.144;24.714;2023-02-02T00:29:00;99638.06;;;6.18;65.26
23170;BME280;11753;43.144;24.714;2023-02-02T00:30:02;99628.44;;;6.18;64.80
23170;BME280;11753;43.144;24.714;2023-02-02T00:31:03;99629.06;;;6.11;64.94
23170;BME280;11753;43.144;24.714;2023-02-02T00:32:04;99621.47;;;6.07;65.37
23170;BME280;11753;43.144;24.714;2023-02-02T00:33:05;99625.00;;;6.06;65.66
23170;BME280;11753;43.144;24.714;2023-02-02T00:34:06;99625.16;;;6.05;65.72
23170;BME280;11753;43.144;24.714;2023-02-02T00:35:07;99630.00;;;6.10;65.60
23170;BME280;11753;43.144;24.714;2023-02-02T00:36:08;99620.94;;;6.14;65.92
23170;BME280;11753;43.144;24.714;2023-02-02T00:37:09;99624.28;;;6.16;65.58
23170;BME280;11753;43.144;24.714;2023-02-02T00:38:10;99620.44;;;6.20;65.27
23170;BME280;11753;43.144;24.714;2023-02-02T00:39:14;99625.47;;;6.12;65.76
23170;BME280;11753;43.144;24.714;2023-02-02T00:40:16;99629.53;;;6.04;66.03
23170;BME280;11753;43.144;24.714;2023-02-02T00:41:17;99622.88;;;6.12;65.78
23170;BME280;11753;43.144;24.714;2023-02-02T00:42:18;99621.66;;;6.16;65.64
23170;BME280;11753;43.144;24.714;2023-02-02T00:43:19;99632.63;;;6.10;65.76
23170;BME280;11753;43.144;24.714;2023-02-02T00:44:20;99628.09;;;6.12;66.00
23170;BME280;11753;43.144;24.714;2023-02-02T00:45:40;99639.16;;;6.15;65.88
23170;BME280;11753;43.144;24.714;2023-02-02T00:46:41;99629.06;;;6.11;65.82
23170;BME280;11753;43.144;24.714;2023-02-02T00:47:45;99630.91;;;6.20;65.74
23170;BME280;11753;43.144;24.714;2023-02-02T00:48:46;99635.91;;;6.23;65.54
23170;BME280;11753;43.144;24.714;2023-02-02T00:49:47;99640.69;;;6.06;66.75
23170;BME280;11753;43.144;24.714;2023-02-02T00:50:48;99630.50;;;6.03;66.78
23170;BME280;11753;43.144;24.714;2023-02-02T00:51:49;99631.94;;;5.96;67.46
23170;BME280;11753;43.144;24.714;2023-02-02T00:52:50;99630.06;;;5.87;68.77
23170;BME280;11753;43.144;24.714;2023-02-02T00:53:51;99623.53;;;5.70;69.31
23170;BME280;11753;43.144;24.714;2023-02-02T00:54:51;99628.50;;;5.85;69.30
23170;BME280;11753;43.144;24.714;2023-02-02T00:55:52;99623.06;;;5.76;69.51
23170;BME280;11753;43.144;24.714;2023-02-02T00:56:53;99614.16;;;5.79;70.16
23170;BME280;11753;43.144;24.714;2023-02-02T00:57:54;99613.44;;;5.77;71.02
23170;BME280;11753;43.144;24.714;2023-02-02T00:58:55;99624.09;;;5.85;71.13
23170;BME280;11753;43.144;24.714;2023-02-02T00:59:56;99626.75;;;5.74;71.85
23170;BME280;11753;43.144;24.714;2023-02-02T01:00:57;99635.31;;;5.65;72.45
23170;BME280;11753;43.144;24.714;2023-02-02T01:01:58;99628.81;;;5.59;73.25
23170;BME280;11753;43.144;24.714;2023-02-02T01:02:59;99624.88;;;5.65;73.23
23170;BME280;11753;43.144;24.714;2023-02-02T01:04:04;99629.63;;;5.60;73.75
23170;BME280;11753;43.144;24.714;2023-02-02T01:05:05;99628.41;;;5.64;74.23
23170;BME280;11753;43.144;24.714;2023-02-02T01:06:06;99622.28;;;5.53;74.79
23170;BME280;11753;43.144;24.714;2023-02-02T01:07:07;99624.97;;;5.63;74.53
23170;BME280;11753;43.144;24.714;2023-02-02T01:08:08;99624.28;;;5.61;74.82
23170;BME280;11753;43.144;24.714;2023-02-02T01:09:09;99623.19;;;5.64;75.04
23170;BME280;11753;43.144;24.714;2023-02-02T01:10:13;99620.38;;;5.56;75.27
23170;BME280;11753;43.144;24.714;2023-02-02T01:11:16;99617.88;;;5.54;75.81
23170;BME280;11753;43.144;24.714;2023-02-02T01:12:17;99625.59;;;5.56;75.95
23170;BME280;11753;43.144;24.714;2023-02-02T01:13:18;99612.78;;;5.41;76.53
23170;BME280;11753;43.144;24.714;2023-02-02T01:14:19;99612.34;;;5.36;76.85
23170;BME280;11753;43.144;24.714;2023-02-02T01:15:21;99608.88;;;5.36;77.01
23170;BME280;11753;43.144;24.714;2023-02-02T01:16:22;99606.50;;;5.33;77.30
23170;BME280;11753;43.144;24.714;2023-02-02T01:17:23;99609.38;;;5.30;77.63
23170;BME280;11753;43.144;24.714;2023-02-02T01:18:24;99610.69;;;5.24;78.04
23170;BME280;11753;43.144;24.714;2023-02-02T01:19:25;99607.38;;;5.22;78.04
23170;BME280;11753;43.144;24.714;2023-02-02T01:20:26;99602.72;;;5.25;78.13
23170;BME280;11753;43.144;24.714;2023-02-02T01:21:27;99607.13;;;5.25;78.31
23170;BME280;11753;43.144;24.714;2023-02-02T01:22:28;99600.59;;;5.19;78.53
23170;BME280;11753;43.144;24.714;2023-02-02T01:23:30;99598.69;;;5.10;78.84
23170;BME280;11753;43.144;24.714;2023-02-02T01:24:31;99597.41;;;5.16;78.87
23170;BME280;11753;43.144;24.714;2023-02-02T01:25:32;99597.88;;;5.10;79.18
23170;BME280;11753;43.144;24.714;2023-02-02T01:26:34;99598.09;;;5.07;79.38
23170;BME280;11753;43.144;24.714;2023-02-02T01:27:35;99587.66;;;5.07;79.83
23170;BME280;11753;43.144;24.714;2023-02-02T01:28:37;99591.22;;;5.17;79.27
23170;BME280;11753;43.144;24.714;2023-02-02T01:29:38;99595.97;;;5.12;79.38
23170;BME280;11753;43.144;24.714;2023-02-02T01:30:39;99589.09;;;5.11;79.64
23170;BME280;11753;43.144;24.714;2023-02-02T01:31:40;99592.66;;;5.10;79.72
23170;BME280;11753;43.144;24.714;2023-02-02T01:32:41;99591.44;;;5.14;79.59
23170;BME280;11753;43.144;24.714;2023-02-02T01:33:45;99591.94;;;5.19;79.41
23170;BME280;11753;43.144;24.714;2023-02-02T01:34:46;99588.97;;;5.23;79.14
23170;BME280;11753;43.144;24.714;2023-02-02T01:35:50;99587.53;;;5.19;79.25
23170;BME280;11753;43.144;24.714;2023-02-02T01:36:53;99585.31;;;5.15;79.54
23170;BME280;11753;43.144;24.714;2023-02-02T01:37:54;99584.69;;;5.22;79.30
23170;BME280;11753;43.144;24.714;2023-02-02T01:38:55;99590.50;;;5.26;79.12
23170;BME280;11753;43.144;24.714;2023-02-02T01:39:55;99593.94;;;5.27;79.15
23170;BME280;11753;43.144;24.714;2023-02-02T01:40:57;99592.88;;;5.18;79.28
23170;BME280;11753;43.144;24.714;2023-02-02T01:41:57;99592.06;;;5.17;79.50
23170;BME280;11753;43.144;24.714;2023-02-02T01:42:58;99584.31;;;5.27;79.02
23170;BME280;11753;43.144;24.714;2023-02-02T01:44:04;99593.38;;;5.23;79.06
23170;BME280;11753;43.144;24.714;2023-02-02T01:46:10;99586.94;;;5.27;78.90
23170;BME280;11753;43.144;24.714;2023-02-02T01:47:11;99588.38;;;5.20;78.81
23170;BME280;11753;43.144;24.714;2023-02-02T01:48:12;99586.84;;;5.17;79.11
23170;BME280;11753;43.144;24.714;2023-02-02T01:49:15;99580.09;;;5.15;78.94
23170;BME280;11753;43.144;24.714;2023-02-02T01:50:20;99582.22;;;5.10;79.44
23170;BME280;11753;43.144;24.714;2023-02-02T01:51:30;99587.09;;;5.14;79.12
23170;BME280;11753;43.144;24.714;2023-02-02T01:52:33;99575.34;;;5.09;79.00
23170;BME280;11753;43.144;24.714;2023-02-02T01:53:35;99583.16;;;4.97;79.22
23170;BME280;11753;43.144;24.714;2023-02-02T01:54:47;99576.88;;;5.00;78.94
23170;BME280;11753;43.144;24.714;2023-02-02T01:55:51;99583.28;;;5.07;78.57
23170;BME280;11753;43.144;24.714;2023-02-02T01:56:59;99579.72;;;5.08;78.07
23170;BME280;11753;43.144;24.714;2023-02-02T01:58:20;99582.94;;;5.01;78.03
23170;BME280;11753;43.144;24.714;2023-02-02T01:59:21;99573.91;;;5.05;77.80
23170;BME280;11753;43.144;24.714;2023-02-02T02:00:23;99581.50;;;5.08;77.43
23170;BME280;11753;43.144;24.714;2023-02-02T02:01:26;99580.31;;;5.12;76.97
23170;BME280;11753;43.144;24.714;2023-02-02T02:02:29;99579.59;;;5.21;76.88
23170;BME280;11753;43.144;24.714;2023-02-02T02:03:33;99581.38;;;5.09;76.74
23170;BME280;11753;43.144;24.714;2023-02-02T02:04:35;99586.50;;;5.22;76.32
23170;BME280;11753;43.144;24.714;2023-02-02T02:05:44;99577.22;;;5.18;76.21
23170;BME280;11753;43.144;24.714;2023-02-02T02:06:47;99571.75;;;5.21;75.80
23170;BME280;11753;43.144;24.714;2023-02-02T02:07:48;99576.06;;;5.22;75.40
23170;BME280;11753;43.144;24.714;2023-02-02T02:08:53;99575.66;;;5.27;75.49
23170;BME280;11753;43.144;24.714;2023-02-02T02:09:55;99577.53;;;5.36;74.80
23170;BME280;11753;43.144;24.714;2023-02-02T02:10:56;99579.59;;;5.32;74.68
23170;BME280;11753;43.144;24.714;2023-02-02T02:11:57;99572.00;;;5.29;74.90
23170;BME280;11753;43.144;24.714;2023-02-02T02:12:58;99563.09;;;5.32;74.34
23170;BME280;11753;43.144;24.714;2023-02-02T02:14:02;99571.50;;;5.35;74.66
23170;BME280;11753;43.144;24.714;2023-02-02T02:15:23;99566.31;;;5.24;74.35
23170;BME280;11753;43.144;24.714;2023-02-02T02:16:52;99571.53;;;5.24;73.92
23170;BME280;11753;43.144;24.714;2023-02-02T02:25:22;99569.72;;;5.36;73.06
23170;BME280;11753;43.144;24.714;2023-02-02T02:28:51;99590.72;;;5.34;71.91
23170;BME280;11753;43.144;24.714;2023-02-02T02:31:47;99575.31;;;5.31;71.92
23170;BME280;11753;43.144;24.714;2023-02-02T02:33:01;99584.81;;;5.43;70.76
23170;BME280;11753;43.144;24.714;2023-02-02T02:34:13;99585.50;;;5.45;70.45
23170;BME280;11753;43.144;24.714;2023-02-02T02:35:37;99583.13;;;5.42;70.10
23170;BME280;11753;43.144;24.714;2023-02-02T02:36:56;99584.53;;;5.46;70.18
23170;BME280;11753;43.144;24.714;2023-02-02T02:39:19;99572.19;;;5.48;70.70
23170;BME280;11753;43.144;24.714;2023-02-02T02:41:32;99581.94;;;5.58;69.78
23170;BME280;11753;43.144;24.714;2023-02-02T02:42:38;99583.59;;;5.59;69.68
23170;BME280;11753;43.144;24.714;2023-02-02T02:43:47;99575.28;;;5.53;70.11
23170;BME280;11753;43.144;24.714;2023-02-02T02:44:52;99584.63;;;5.56;69.88
23170;BME280;11753;43.144;24.714;2023-02-02T02:45:54;99587.84;;;5.48;69.76
23170;BME280;11753;43.144;24.714;2023-02-02T02:46:55;99584.53;;;5.58;69.83
23170;BME280;11753;43.144;24.714;2023-02-02T02:47:57;99592.84;;;5.51;69.40
23170;BME280;11753;43.144;24.714;2023-02-02T02:48:59;99594.25;;;5.56;69.78
23170;BME280;11753;43.144;24.714;2023-02-02T02:50:01;99588.81;;;5.59;69.66
23170;BME280;11753;43.144;24.714;2023-02-02T02:51:08;99589.97;;;5.66;69.52
23170;BME280;11753;43.144;24.714;2023-02-02T02:52:29;99587.63;;;5.51;69.74
23170;BME280;11753;43.144;24.714;2023-02-02T02:53:30;99577.19;;;5.51;69.40
23170;BME280;11753;43.144;24.714;2023-02-02T02:54:36;99587.72;;;5.50;69.72
23170;BME280;11753;43.144;24.714;2023-02-02T02:56:23;99586.69;;;5.41;69.78
23170;BME280;11753;43.144;24.714;2023-02-02T03:01:01;99587.63;;;5.51;69.28
23170;BME280;11753;43.144;24.714;2023-02-02T03:07:07;99580.97;;;5.47;68.60
23170;BME280;11753;43.144;24.714;2023-02-02T03:09:29;99579.31;;;5.58;68.21
23170;BME280;11753;43.144;24.714;2023-02-02T03:10:35;99580.16;;;5.47;68.57
23170;BME280;11753;43.144;24.714;2023-02-02T03:11:37;99579.53;;;5.55;68.41
23170;BME280;11753;43.144;24.714;2023-02-02T03:12:48;99577.63;;;5.57;67.76
23170;BME280;11753;43.144;24.714;2023-02-02T03:13:49;99584.88;;;5.53;68.01
23170;BME280;11753;43.144;24.714;2023-02-02T03:14:49;99580.50;;;5.53;68.01
23170;BME280;11753;43.144;24.714;2023-02-02T03:15:50;99576.34;;;5.51;68.06
23170;BME280;11753;43.144;24.714;2023-02-02T03:16:51;99585.59;;;5.55;68.30
23170;BME280;11753;43.144;24.714;2023-02-02T03:17:53;99580.50;;;5.53;68.16
23170;BME280;11753;43.144;24.714;2023-02-02T03:18:54;99577.06;;;5.53;67.54
23170;BME280;11753;43.144;24.714;2023-02-02T03:19:55;99593.44;;;5.55;67.75
23170;BME280;11753;43.144;24.714;2023-02-02T03:20:56;99581.22;;;5.44;67.60
23170;BME280;11753;43.144;24.714;2023-02-02T03:21:56;99580.75;;;5.50;67.77
23170;BME280;11753;43.144;24.714;2023-02-02T03:22:57;99587.63;;;5.51;67.21
23170;BME280;11753;43.144;24.714;2023-02-02T03:23:57;99593.06;;;5.48;67.34
23170;BME280;11753;43.144;24.714;2023-02-02T03:24:58;99584.63;;;5.56;67.04
23170;BME280;11753;43.144;24.714;2023-02-02T03:25:58;99586.19;;;5.47;66.89
23170;BME280;11753;43.144;24.714;2023-02-02T03:26:59;99583.38;;;5.39;66.97
23170;BME280;11753;43.144;24.714;2023-02-02T03:28:00;99584.31;;;5.38;67.07
23170;BME280;11753;43.144;24.714;2023-02-02T03:29:02;99583.25;;;5.52;67.00
23170;BME280;11753;43.144;24.714;2023-02-02T03:30:05;99580.50;;;5.53;66.73
23170;BME280;11753;43.144;24.714;2023-02-02T03:31:07;99585.72;;;5.42;66.73
23170;BME280;11753;43.144;24.714;2023-02-02T03:32:10;99581.72;;;5.38;67.25
23170;BME280;11753;43.144;24.714;2023-02-02T03:33:11;99588.94;;;5.46;66.60
23170;BME280;11753;43.144;24.714;2023-02-02T03:34:12;99571.97;;;5.40;66.60
23170;BME280;11753;43.144;24.714;2023-02-02T03:35:13;99587.88;;;5.37;66.97
23170;BME280;11753;43.144;24.714;2023-02-02T03:36:13;99594.50;;;5.41;66.76
23170;BME280;11753;43.144;24.714;2023-02-02T03:37:14;99588.13;;;5.45;66.25
23170;BME280;11753;43.144;24.714;2023-02-02T03:38:14;99590.03;;;5.43;66.57
23170;BME280;11753;43.144;24.714;2023-02-02T03:39:15;99595.25;;;5.43;66.30
23170;BME280;11753;43.144;24.714;2023-02-02T03:40:16;99589.78;;;5.46;66.58
23170;BME280;11753;43.144;24.714;2023-02-02T03:41:17;99593.56;;;5.42;66.23
23170;BME280;11753;43.144;24.714;2023-02-02T03:42:17;99587.16;;;5.35;66.31
23170;BME280;11753;43.144;24.714;2023-02-02T03:43:22;99588.59;;;5.39;66.39
23170;BME280;11753;43.144;24.714;2023-02-02T03:44:22;99596.31;;;5.30;66.01
23170;BME280;11753;43.144;24.714;2023-02-02T03:45:26;99586.09;;;5.38;66.24
23170;BME280;11753;43.144;24.714;2023-02-02T03:46:27;99588.34;;;5.42;66.31
23170;BME280;11753;43.144;24.714;2023-02-02T03:47:28;99589.28;;;5.52;65.64
23170;BME280;11753;43.144;24.714;2023-02-02T03:48:29;99579.75;;;5.63;64.76
23170;BME280;11753;43.144;24.714;2023-02-02T03:49:30;99584.53;;;5.46;64.93
23170;BME280;11753;43.144;24.714;2023-02-02T03:50:32;99582.63;;;5.48;65.06
23170;BME280;11753;43.144;24.714;2023-02-02T03:51:32;99585.50;;;5.45;64.77
23170;BME280;11753;43.144;24.714;2023-02-02T03:52:33;99580.03;;;5.48;65.48
23170;BME280;11753;43.144;24.714;2023-02-02T03:53:34;99579.88;;;5.61;64.55
23170;BME280;11753;43.144;24.714;2023-02-02T03:54:34;99582.50;;;5.61;64.41
23170;BME280;11753;43.144;24.714;2023-02-02T03:55:35;99581.88;;;5.69;64.12
23170;BME280;11753;43.144;24.714;2023-02-02T03:56:38;99581.38;;;5.75;63.49
23170;BME280;11753;43.144;24.714;2023-02-02T03:57:39;99586.41;;;5.67;63.58
23170;BME280;11753;43.144;24.714;2023-02-02T03:58:40;99575.97;;;5.56;63.65
23170;BME280;11753;43.144;24.714;2023-02-02T03:59:41;99580.25;;;5.57;64.05
23170;BME280;11753;43.144;24.714;2023-02-02T04:00:42;99576.44;;;5.61;63.70
23170;BME280;11753;43.144;24.714;2023-02-02T04:01:43;99581.94;;;5.58;63.75
23170;BME280;11753;43.144;24.714;2023-02-02T04:02:44;99585.03;;;5.51;63.95
23170;BME280;11753;43.144;24.714;2023-02-02T04:03:44;99589.38;;;5.62;63.96
23170;BME280;11753;43.144;24.714;2023-02-02T04:04:45;99588.81;;;5.59;63.68
23170;BME280;11753;43.144;24.714;2023-02-02T04:05:51;99588.53;;;5.62;63.76
23170;BME280;11753;43.144;24.714;2023-02-02T04:06:51;99593.28;;;5.68;63.36
23170;BME280;11753;43.144;24.714;2023-02-02T04:07:52;99588.81;;;5.59;63.22
23170;BME280;11753;43.144;24.714;2023-02-02T04:08:52;99594.59;;;5.62;62.98
23170;BME280;11753;43.144;24.714;2023-02-02T04:09:53;99593.06;;;5.60;63.48
23170;BME280;11753;43.144;24.714;2023-02-02T04:10:55;99592.94;;;5.61;63.26
23170;BME280;11753;43.144;24.714;2023-02-02T04:11:56;99600.41;;;5.66;61.96
23170;BME280;11753;43.144;24.714;2023-02-02T04:12:57;99593.03;;;5.71;62.87
23170;BME280;11753;43.144;24.714;2023-02-02T04:13:58;99599.06;;;5.71;61.78
23170;BME280;11753;43.144;24.714;2023-02-02T04:14:59;99602.16;;;5.76;61.90
23170;BME280;11753;43.144;24.714;2023-02-02T04:15:59;99597.28;;;5.83;61.24
23170;BME280;11753;43.144;24.714;2023-02-02T04:17:00;99595.34;;;5.85;60.96
23170;BME280;11753;43.144;24.714;2023-02-02T04:18:01;99590.97;;;5.86;61.08
23170;BME280;11753;43.144;24.714;2023-02-02T04:19:03;99597.38;;;5.93;61.20
23170;BME280;11753;43.144;24.714;2023-02-02T04:20:04;99597.16;;;5.96;60.38
23170;BME280;11753;43.144;24.714;2023-02-02T04:21:06;99602.00;;;5.89;60.23
23170;BME280;11753;43.144;24.714;2023-02-02T04:22:08;99599.75;;;5.96;60.12
23170;BME280;11753;43.144;24.714;2023-02-02T04:23:09;99591.66;;;5.99;60.24
23170;BME280;11753;43.144;24.714;2023-02-02T04:24:11;99608.78;;;6.03;59.85
23170;BME280;11753;43.144;24.714;2023-02-02T04:25:12;99588.69;;;6.03;59.15
23170;BME280;11753;43.144;24.714;2023-02-02T04:26:13;99601.50;;;6.06;58.76
23170;BME280;11753;43.144;24.714;2023-02-02T04:27:13;99602.44;;;6.05;58.76
23170;BME280;11753;43.144;24.714;2023-02-02T04:28:14;99599.97;;;6.04;58.45
23170;BME280;11753;43.144;24.714;2023-02-02T04:29:15;99599.34;;;6.12;58.52
23170;BME280;11753;43.144;24.714;2023-02-02T04:30:17;99597.81;;;6.09;58.25
23170;BME280;11753;43.144;24.714;2023-02-02T04:31:19;99604.09;;;6.06;58.55
23170;BME280;11753;43.144;24.714;2023-02-02T04:32:20;99601.75;;;6.03;58.35
23170;BME280;11753;43.144;24.714;2023-02-02T04:33:22;99603.03;;;6.09;58.47
23170;BME280;11753;43.144;24.714;2023-02-02T04:34:23;99598.38;;;6.13;57.90
23170;BME280;11753;43.144;24.714;2023-02-02T04:35:23;99605.56;;;5.99;57.99
23170;BME280;11753;43.144;24.714;2023-02-02T04:36:25;99605.25;;;6.14;58.17
23170;BME280;11753;43.144;24.714;2023-02-02T04:37:26;99598.66;;;6.10;57.50
23170;BME280;11753;43.144;24.714;2023-02-02T04:38:29;99602.44;;;6.05;57.71
23170;BME280;11753;43.144;24.714;2023-02-02T04:39:30;99607.13;;;6.02;58.04
23170;BME280;11753;43.144;24.714;2023-02-02T04:40:31;99601.25;;;6.10;57.99
23170;BME280;11753;43.144;24.714;2023-02-02T04:41:32;99598.66;;;6.10;58.19
23170;BME280;11753;43.144;24.714;2023-02-02T04:42:33;99596.50;;;6.15;57.80
23170;BME280;11753;43.144;24.714;2023-02-02T04:43:35;99607.78;;;6.15;57.53
23170;BME280;11753;43.144;24.714;2023-02-02T04:44:36;99612.75;;;6.18;57.98
23170;BME280;11753;43.144;24.714;2023-02-02T04:45:37;99603.56;;;6.24;57.44
23170;BME280;11753;43.144;24.714;2023-02-02T04:46:38;99611.31;;;6.14;57.54
23170;BME280;11753;43.144;24.714;2023-02-02T04:47:39;99610.75;;;6.11;57.47
23170;BME280;11753;43.144;24.714;2023-02-02T04:48:40;99626.19;;;6.14;57.60
23170;BME280;11753;43.144;24.714;2023-02-02T04:49:41;99625.44;;;6.23;57.16
23170;BME280;11753;43.144;24.714;2023-02-02T04:50:42;99627.34;;;6.21;56.89
23170;BME280;11753;43.144;24.714;2023-02-02T04:51:46;99617.41;;;6.15;56.91
23170;BME280;11753;43.144;24.714;2023-02-02T04:52:47;99624.53;;;6.13;57.44
23170;BME280;11753;43.144;24.714;2023-02-02T04:53:48;99623.47;;;6.15;56.76
23170;BME280;11753;43.144;24.714;2023-02-02T04:54:49;99623.19;;;6.18;57.21
23170;BME280;11753;43.144;24.714;2023-02-02T04:55:50;99616.13;;;6.09;56.76
23170;BME280;11753;43.144;24.714;2023-02-02T04:56:51;99625.19;;;5.94;57.60
23170;BME280;11753;43.144;24.714;2023-02-02T04:57:52;99623.84;;;5.99;57.59
23170;BME280;11753;43.144;24.714;2023-02-02T04:58:53;99629.31;;;6.07;57.61
23170;BME280;11753;43.144;24.714;2023-02-02T04:59:55;99634.63;;;6.06;57.73
23170;BME280;11753;43.144;24.714;2023-02-02T05:00:56;99630.50;;;6.03;57.56
23170;BME280;11753;43.144;24.714;2023-02-02T05:02:01;99627.19;;;6.01;57.20
23170;BME280;11753;43.144;24.714;2023-02-02T05:03:02;99624.25;;;5.95;57.52
23170;BME280;11753;43.144;24.714;2023-02-02T05:04:03;99633.63;;;5.86;57.79
23170;BME280;11753;43.144;24.714;2023-02-02T05:05:05;99635.50;;;5.84;57.78
23170;BME280;11753;43.144;24.714;2023-02-02T05:06:07;99632.75;;;5.86;57.93
23170;BME280;11753;43.144;24.714;2023-02-02T05:07:08;99640.97;;;5.92;58.08
23170;BME280;11753;43.144;24.714;2023-02-02T05:08:09;99629.59;;;5.93;57.95
23170;BME280;11753;43.144;24.714;2023-02-02T05:09:11;99627.91;;;5.92;57.73
23170;BME280;11753;43.144;24.714;2023-02-02T05:10:12;99627.41;;;5.98;57.17
23170;BME280;11753;43.144;24.714;2023-02-02T05:11:19;99627.81;;;5.94;57.35
23170;BME280;11753;43.144;24.714;2023-02-02T05:12:20;99625.75;;;5.97;57.51
23170;BME280;11753;43.144;24.714;2023-02-02T05:13:21;99627.69;;;5.95;57.50
23170;BME280;11753;43.144;24.714;2023-02-02T05:14:22;99620.78;;;5.94;57.51
23170;BME280;11753;43.144;24.714;2023-02-02T05:15:23;99623.84;;;5.99;57.29
23170;BME280;11753;43.144;24.714;2023-02-02T05:16:24;99624.69;;;6.00;57.26
23170;BME280;11753;43.144;24.714;2023-02-02T05:17:26;99618.41;;;5.91;57.29
23170;BME280;11753;43.144;24.714;2023-02-02T05:18:28;99621.47;;;5.85;57.47
23170;BME280;11753;43.144;24.714;2023-02-02T05:19:31;99626.97;;;5.82;57.70
23170;BME280;11753;43.144;24.714;2023-02-02T05:20:32;99618.44;;;5.80;57.50
23170;BME280;11753;43.144;24.714;2023-02-02T05:21:32;99618.88;;;5.85;57.86
23170;BME280;11753;43.144;24.714;2023-02-02T05:22:33;99624.81;;;5.87;57.28
23170;BME280;11753;43.144;24.714;2023-02-02T05:23:35;99623.63;;;5.91;57.42
23170;BME280;11753;43.144;24.714;2023-02-02T05:24:36;99617.47;;;5.92;57.15
23170;BME280;11753;43.144;24.714;2023-02-02T05:25:37;99618.28;;;5.93;57.08
23170;BME280;11753;43.144;24.714;2023-02-02T05:26:38;99620.78;;;5.94;57.51
23170;BME280;11753;43.144;24.714;2023-02-02T05:27:44;99631.56;;;5.90;57.16
23170;BME280;11753;43.144;24.714;2023-02-02T05:28:45;99626.72;;;5.85;56.78
23170;BME280;11753;43.144;24.714;2023-02-02T05:29:47;99630.91;;;5.76;57.42
23170;BME280;11753;43.144;24.714;2023-02-02T05:30:48;99630.53;;;5.81;57.68
23170;BME280;11753;43.144;24.714;2023-02-02T05:31:50;99621.75;;;5.82;56.94
23170;BME280;11753;43.144;24.714;2023-02-02T05:32:51;99624.09;;;5.85;56.54
23170;BME280;11753;43.144;24.714;2023-02-02T05:33:52;99622.31;;;5.86;56.75
23170;BME280;11753;43.144;24.714;2023-02-02T05:34:53;99625.78;;;5.86;56.66
23170;BME280;11753;43.144;24.714;2023-02-02T05:35:54;99617.94;;;5.86;56.83
23170;BME280;11753;43.144;24.714;2023-02-02T05:36:55;99621.25;;;5.88;56.57
23170;BME280;11753;43.144;24.714;2023-02-02T05:37:56;99615.06;;;5.89;56.50
23170;BME280;11753;43.144;24.714;2023-02-02T05:38:57;99610.09;;;5.97;56.31
23170;BME280;11753;43.144;24.714;2023-02-02T05:39:58;99609.16;;;5.87;56.13
23170;BME280;11753;43.144;24.714;2023-02-02T05:41:00;99617.94;;;5.97;56.48
23170;BME280;11753;43.144;24.714;2023-02-02T05:42:01;99612.84;;;5.96;56.40
23170;BME280;11753;43.144;24.714;2023-02-02T05:43:02;99602.50;;;5.83;55.95
23170;BME280;11753;43.144;24.714;2023-02-02T05:44:03;99605.56;;;5.88;56.47
23170;BME280;11753;43.144;24.714;2023-02-02T05:45:05;99614.88;;;5.81;56.16
23170;BME280;11753;43.144;24.714;2023-02-02T05:46:06;99620.31;;;5.78;56.42
23170;BME280;11753;43.144;24.714;2023-02-02T05:47:08;99618.44;;;5.80;56.54
23170;BME280;11753;43.144;24.714;2023-02-02T05:48:12;99611.84;;;5.86;55.90
23170;BME280;11753;43.144;24.714;2023-02-02T05:49:16;99628.41;;;5.86;55.92
23170;BME280;11753;43.144;24.714;2023-02-02T05:50:17;99610.47;;;5.82;55.68
23170;BME280;11753;43.144;24.714;2023-02-02T05:51:25;99620.78;;;5.83;55.77
23170;BME280;11753;43.144;24.714;2023-02-02T05:52:30;99629.09;;;5.88;55.66
23170;BME280;11753;43.144;24.714;2023-02-02T05:53:33;99638.84;;;5.97;56.07
23170;BME280;11753;43.144;24.714;2023-02-02T05:54:34;99635.03;;;5.90;55.33
23170;BME280;11753;43.144;24.714;2023-02-02T05:55:34;99636.47;;;5.94;55.26
23170;BME280;11753;43.144;24.714;2023-02-02T05:56:35;99640.25;;;6.01;55.22